Time;durP1;ratioP1;P1;durP2;ratioP2;P2;SDS_P1;SDS_P2;PMS_P1;PMS_P2;Temp;Humidity;BMP_temperature;BMP_pressure;BME280_temperature;BME280_humidity;BME280_pressure;Samples;Min_cycle;Max_cycle;Signal;HPM_P1;HPM_P2
2022/04/18 00:01:19;;;;;;;0.50;0.50;;;5.00;99.90;;;;;;5075162;28;20435;-68
2022/04/18 00:04:08;;;;;;;0.50;0.50;;;5.00;99.90;;;;;;5074898;28;20423;-68
2022/04/18 00:06:56;;;;;;;0.50;0.50;;;4.90;99.90;;;;;;5075573;28;21049;-68
2022/04/18 00:09:44;;;;;;;0.50;0.50;;;4.90;99.90;;;;;;5075667;28;21015;-69
2022/04/18 00:12:32;;;;;;;0.50;0.50;;;4.90;99.90;;;;;;5074271;28;20841;-68
2022/04/18 00:15:23;;;;;;;0.50;0.50;;;4.80;99.90;;;;;;5074380;28;20518;-69
2022/04/18 00:18:11;;;;;;;0.50;0.50;;;4.70;99.90;;;;;;5075520;28;20430;-69
2022/04/18 00:21:00;;;;;;;0.50;0.50;;;4.70;99.90;;;;;;5073858;28;20431;-68
2022/04/18 00:23:48;;;;;;;0.50;0.50;;;4.60;99.90;;;;;;5074842;28;20485;-69
2022/04/18 00:26:39;;;;;;;0.50;0.50;;;4.60;99.90;;;;;;5074396;28;20474;-68
2022/04/18 00:29:27;;;;;;;0.50;0.50;;;4.60;99.90;;;;;;5073552;28;20453;-68
2022/04/18 00:32:17;;;;;;;0.50;0.50;;;4.60;99.90;;;;;;5073880;28;20484;-69
2022/04/18 00:35:06;;;;;;;0.50;0.50;;;4.50;99.90;;;;;;5074617;28;20469;-69
2022/04/18 00:37:55;;;;;;;0.50;0.50;;;4.40;99.90;;;;;;5076472;28;20947;-69
2022/04/18 00:40:43;;;;;;;0.50;0.50;;;4.40;99.90;;;;;;5073343;28;20411;-68
2022/04/18 00:43:43;;;;;;;0.50;0.50;;;4.30;99.90;;;;;;5073948;28;20929;-68
2022/04/18 00:46:31;;;;;;;0.50;0.50;;;4.30;99.90;;;;;;5073855;28;20507;-68
2022/04/18 00:49:20;;;;;;;0.50;0.50;;;4.30;99.90;;;;;;5073343;28;20430;-68
2022/04/18 00:52:09;;;;;;;0.50;0.50;;;4.20;99.90;;;;;;5073780;28;20962;-69
2022/04/18 00:55:01;;;;;;;0.50;0.50;;;4.20;99.90;;;;;;5073288;28;20424;-69
2022/04/18 00:57:52;;;;;;;0.50;0.50;;;4.10;99.90;;;;;;5074074;28;20426;-68
2022/04/18 01:00:40;;;;;;;0.50;0.50;;;4.00;99.90;;;;;;5072476;28;20419;-69
2022/04/18 01:03:30;;;;;;;0.40;0.40;;;4.00;99.90;;;;;;5072941;28;20959;-69
2022/04/18 01:06:20;;;;;;;0.50;0.50;;;4.00;99.90;;;;;;5073470;28;20847;-70
2022/04/18 01:09:08;;;;;;;0.50;0.50;;;4.00;99.90;;;;;;5071686;28;20970;-70
2022/04/18 01:11:56;;;;;;;0.50;0.50;;;3.90;99.90;;;;;;5073354;28;20428;-68
2022/04/18 01:14:48;;;;;;;0.50;0.50;;;3.90;99.90;;;;;;5072169;28;20427;-69
2022/04/18 01:17:36;;;;;;;0.50;0.50;;;3.80;99.90;;;;;;5072658;28;20784;-68
2022/04/18 01:20:25;;;;;;;0.50;0.50;;;3.80;99.90;;;;;;5073176;28;20920;-68
2022/04/18 01:23:14;;;;;;;0.50;0.50;;;3.80;99.90;;;;;;5073391;28;20441;-69
2022/04/18 01:29:09;;;;;;;0.50;0.50;;;3.70;99.90;;;;;;5072771;28;20431;-67
2022/04/18 01:31:57;;;;;;;1.27;1.27;;;3.60;99.90;;;;;;5068377;28;20973;-69
2022/04/18 01:34:45;;;;;;;0.50;0.50;;;3.60;99.90;;;;;;5063815;28;20415;-69
2022/04/18 01:37:35;;;;;;;0.50;0.50;;;3.50;99.90;;;;;;5072553;28;20434;-69
2022/04/18 01:40:25;;;;;;;0.50;0.50;;;3.50;99.90;;;;;;5073047;28;20496;-69
2022/04/18 01:43:13;;;;;;;0.50;0.50;;;3.40;99.90;;;;;;5072319;28;20939;-68
2022/04/18 01:46:01;;;;;;;0.50;0.50;;;3.40;99.90;;;;;;5072600;28;20466;-67
2022/04/18 01:48:51;;;;;;;0.50;0.50;;;3.40;99.90;;;;;;5072805;28;20427;-68
2022/04/18 01:51:39;;;;;;;0.50;0.50;;;3.40;99.90;;;;;;5072813;28;20418;-68
2022/04/18 01:54:27;;;;;;;0.50;0.50;;;3.40;99.90;;;;;;5073214;28;20508;-68
2022/04/18 01:57:17;;;;;;;0.40;0.40;;;3.30;99.90;;;;;;5073628;28;20431;-68
2022/04/18 02:00:08;;;;;;;0.50;0.50;;;3.30;99.90;;;;;;5072667;28;20966;-68
2022/04/18 02:02:56;;;;;;;0.50;0.50;;;3.30;99.90;;;;;;5072767;28;20430;-68
2022/04/18 02:05:47;;;;;;;0.50;0.50;;;3.30;99.90;;;;;;5076325;28;20467;-69
2022/04/18 02:08:35;;;;;;;0.50;0.50;;;3.30;99.90;;;;;;5072753;28;20419;-69
2022/04/18 02:11:23;;;;;;;0.50;0.50;;;3.20;99.90;;;;;;5071770;28;20433;-68
2022/04/18 02:14:14;;;;;;;0.50;0.50;;;3.20;99.90;;;;;;5072074;28;20473;-72
2022/04/18 02:17:02;;;;;;;0.50;0.50;;;3.20;99.90;;;;;;5072173;28;20440;-69
2022/04/18 02:19:50;;;;;;;0.50;0.50;;;3.20;99.90;;;;;;5071599;28;20431;-69
2022/04/18 02:22:38;;;;;;;0.50;0.50;;;3.20;99.90;;;;;;5071947;28;20468;-69
2022/04/18 02:25:26;;;;;;;0.50;0.50;;;3.10;99.90;;;;;;5071829;28;20424;-69
2022/04/18 02:28:14;;;;;;;0.50;0.50;;;3.10;99.90;;;;;;5071890;28;20485;-69
2022/04/18 02:31:04;;;;;;;0.50;0.50;;;3.00;99.90;;;;;;5072228;28;20435;-68
2022/04/18 02:33:52;;;;;;;0.50;0.50;;;3.00;99.90;;;;;;5072356;28;20427;-68
2022/04/18 02:36:40;;;;;;;0.50;0.50;;;2.90;99.90;;;;;;5072827;28;20462;-68
2022/04/18 02:39:30;;;;;;;0.50;0.50;;;2.90;99.90;;;;;;5072485;28;20419;-68
2022/04/18 02:42:19;;;;;;;0.50;0.50;;;2.90;99.90;;;;;;5072024;28;20502;-69
2022/04/18 02:45:08;;;;;;;0.50;0.50;;;2.90;99.90;;;;;;5071738;28;20424;-68
2022/04/18 02:47:57;;;;;;;0.40;0.40;;;2.90;99.90;;;;;;5072141;28;20416;-69
2022/04/18 02:50:45;;;;;;;0.50;0.50;;;2.80;99.90;;;;;;5076737;28;20419;-68
2022/04/18 02:53:34;;;;;;;0.50;0.50;;;2.80;99.90;;;;;;5076287;28;20477;-68
2022/04/18 02:56:22;;;;;;;0.50;0.50;;;2.70;99.90;;;;;;5076363;28;20435;-68
2022/04/18 02:59:10;;;;;;;0.50;0.50;;;2.70;99.90;;;;;;5075730;28;20419;-68
2022/04/18 03:01:58;;;;;;;0.50;0.50;;;2.70;99.90;;;;;;5075732;28;20433;-68
2022/04/18 03:04:47;;;;;;;0.50;0.50;;;2.70;99.90;;;;;;5075535;28;20514;-69
2022/04/18 03:07:35;;;;;;;0.50;0.50;;;2.60;99.90;;;;;;5076069;28;20512;-68
2022/04/18 03:13:26;;;;;;;0.50;0.50;;;2.50;99.90;;;;;;5075281;28;20434;-68
2022/04/18 03:16:15;;;;;;;1.53;1.43;;;2.40;99.90;;;;;;5075250;28;20817;-69
2022/04/18 03:19:03;;;;;;;2.30;2.20;;;2.40;99.90;;;;;;5075562;28;20423;-68
2022/04/18 03:21:53;;;;;;;3.80;3.60;;;2.40;99.90;;;;;;5075205;28;20427;-67
2022/04/18 03:24:41;;;;;;;0.60;0.60;;;2.30;99.90;;;;;;5075649;28;20423;-69
2022/04/18 03:27:29;;;;;;;0.47;0.47;;;2.30;99.90;;;;;;5075081;28;21010;-69
2022/04/18 03:30:17;;;;;;;0.40;0.40;;;2.30;99.90;;;;;;5074586;28;20796;-69
2022/04/18 03:33:05;;;;;;;0.50;0.50;;;2.30;99.90;;;;;;5074421;28;20419;-69
2022/04/18 03:42:08;;;;;;;0.50;0.50;;;2.30;99.90;;;;;;5075021;28;20450;-68
2022/04/18 03:44:59;;;;;;;0.40;0.40;;;2.30;99.90;;;;;;5074460;28;20473;-69
2022/04/18 03:47:47;;;;;;;0.40;0.40;;;2.30;99.90;;;;;;5075076;28;20463;-69
2022/04/18 03:50:35;;;;;;;0.50;0.50;;;2.20;99.90;;;;;;5074931;28;20898;-68
2022/04/18 03:53:23;;;;;;;0.50;0.50;;;2.20;99.90;;;;;;5074770;28;20431;-68
2022/04/18 03:56:13;;;;;;;0.50;0.50;;;2.20;99.90;;;;;;5075796;28;20447;-69
2022/04/18 03:59:01;;;;;;;0.50;0.50;;;2.20;99.90;;;;;;5076800;28;20420;-68
2022/04/18 04:01:49;;;;;;;0.50;0.50;;;2.10;99.90;;;;;;5075955;28;20477;-68
2022/04/18 04:04:37;;;;;;;0.50;0.50;;;2.10;99.90;;;;;;5074594;28;20822;-69
2022/04/18 04:07:25;;;;;;;1.13;1.13;;;2.00;99.90;;;;;;5074802;28;20468;-69
2022/04/18 04:10:13;;;;;;;0.50;0.50;;;2.00;99.90;;;;;;5074115;28;20463;-69
2022/04/18 04:13:03;;;;;;;0.50;0.50;;;2.00;99.90;;;;;;5074940;28;20419;-69
2022/04/18 04:15:51;;;;;;;0.50;0.50;;;2.00;99.90;;;;;;5073785;28;20447;-69
2022/04/18 04:18:39;;;;;;;0.50;0.50;;;2.00;99.90;;;;;;5074415;28;20469;-69
2022/04/18 04:21:27;;;;;;;0.50;0.50;;;2.00;99.90;;;;;;5087537;28;20419;-69
2022/04/18 04:24:16;;;;;;;0.50;0.50;;;2.00;99.90;;;;;;5089463;28;20416;-69
2022/04/18 04:27:04;;;;;;;0.50;0.50;;;2.10;99.90;;;;;;5090351;28;20482;-69
2022/04/18 04:29:54;;;;;;;0.50;0.50;;;2.10;99.90;;;;;;5091924;28;20457;-69
2022/04/18 04:32:42;;;;;;;0.50;0.50;;;2.10;99.90;;;;;;5089944;28;20423;-69
2022/04/18 04:35:30;;;;;;;0.50;0.50;;;2.20;99.90;;;;;;5088788;28;20443;-69
2022/04/18 04:38:18;;;;;;;0.50;0.50;;;2.20;99.90;;;;;;5088797;28;20416;-68
2022/04/18 04:41:06;;;;;;;0.50;0.50;;;2.30;99.90;;;;;;5088566;28;20782;-69
2022/04/18 04:43:55;;;;;;;0.50;0.50;;;2.40;99.90;;;;;;5088174;28;20447;-69
2022/04/18 04:46:45;;;;;;;0.50;0.50;;;2.40;99.90;;;;;;5088814;28;20502;-69
2022/04/18 04:49:33;;;;;;;0.50;0.50;;;2.40;99.90;;;;;;5089016;28;20435;-69
2022/04/18 04:52:22;;;;;;;0.50;0.50;;;2.50;99.90;;;;;;5087216;28;20431;-69
2022/04/18 04:55:11;;;;;;;0.50;0.50;;;2.50;99.90;;;;;;5081253;28;20424;-70
2022/04/18 04:57:59;;;;;;;0.50;0.50;;;2.60;99.90;;;;;;5078718;28;20928;-69
2022/04/18 05:00:48;;;;;;;0.50;0.50;;;2.70;99.90;;;;;;5076328;28;20473;-69
2022/04/18 05:03:37;;;;;;;0.50;0.50;;;2.80;99.90;;;;;;5074274;28;20430;-68
2022/04/18 05:06:25;;;;;;;0.50;0.50;;;2.80;99.90;;;;;;5074349;28;20892;-68
2022/04/18 05:09:13;;;;;;;0.50;0.50;;;2.90;99.90;;;;;;5074514;28;20846;-68
2022/04/18 05:12:01;;;;;;;0.50;0.50;;;3.00;99.90;;;;;;5073422;28;20943;-69
2022/04/18 05:14:50;;;;;;;0.50;0.50;;;3.00;99.90;;;;;;5074831;28;21012;-70
2022/04/18 05:17:38;;;;;;;1.47;0.80;;;3.10;99.90;;;;;;5075038;28;20412;-69
2022/04/18 05:20:27;;;;;;;0.50;0.50;;;3.20;99.90;;;;;;5074516;28;20423;-69
2022/04/18 05:23:17;;;;;;;0.50;0.50;;;3.20;99.90;;;;;;5075925;28;20416;-70
2022/04/18 05:26:05;;;;;;;0.50;0.50;;;3.40;99.90;;;;;;5080857;28;20447;-70
2022/04/18 05:28:53;;;;;;;0.50;0.50;;;3.40;99.90;;;;;;5087720;28;20496;-70
2022/04/18 05:31:41;;;;;;;0.50;0.50;;;3.50;99.90;;;;;;5086866;28;20488;-68
2022/04/18 05:34:29;;;;;;;0.60;0.60;;;3.60;99.90;;;;;;5087022;28;20430;-68
2022/04/18 05:37:18;;;;;;;0.50;0.50;;;3.70;99.90;;;;;;5086793;28;20475;-68
2022/04/18 05:40:08;;;;;;;0.50;0.50;;;3.80;99.90;;;;;;5086415;28;20457;-69
2022/04/18 05:42:56;;;;;;;0.50;0.50;;;3.90;99.90;;;;;;5086509;28;20428;-69
2022/04/18 05:45:44;;;;;;;2.10;2.00;;;4.00;99.90;;;;;;5087398;28;20442;-69
2022/04/18 05:48:32;;;;;;;0.50;0.50;;;4.10;99.90;;;;;;5082250;28;20463;-69
2022/04/18 05:51:20;;;;;;;0.50;0.50;;;4.20;99.90;;;;;;5080918;28;20427;-69
2022/04/18 05:54:10;;;;;;;1.47;1.47;;;4.30;99.90;;;;;;5077000;28;20940;-69
2022/04/18 05:57:00;;;;;;;0.50;0.50;;;4.40;99.90;;;;;;5072905;28;20435;-70
2022/04/18 05:59:48;;;;;;;0.50;0.50;;;4.60;99.90;;;;;;5073256;28;20900;-69
2022/04/18 06:02:37;;;;;;;1.87;1.77;;;4.80;99.90;;;;;;5072930;28;20963;-69
2022/04/18 06:05:29;;;;;;;0.50;0.50;;;5.00;99.90;;;;;;5072958;28;20443;-69
2022/04/18 06:08:17;;;;;;;0.63;0.63;;;5.10;99.90;;;;;;5072733;28;20482;-69
2022/04/18 06:11:07;;;;;;;3.00;2.90;;;5.20;99.90;;;;;;5073092;28;20500;-69
2022/04/18 06:13:55;;;;;;;0.70;0.70;;;5.40;99.90;;;;;;5072977;28;20484;-69
2022/04/18 06:16:43;;;;;;;0.50;0.50;;;5.50;99.90;;;;;;5074034;28;20444;-69
2022/04/18 06:19:31;;;;;;;0.50;0.50;;;5.60;99.90;;;;;;5073279;28;20429;-69
2022/04/18 06:22:19;;;;;;;0.50;0.50;;;5.70;99.90;;;;;;5072417;28;20545;-69
2022/04/18 06:25:08;;;;;;;1.47;1.37;;;5.80;99.90;;;;;;5073051;28;20424;-69
2022/04/18 06:27:58;;;;;;;0.50;0.50;;;5.90;99.90;;;;;;5073694;28;20517;-70
2022/04/18 06:30:46;;;;;;;0.50;0.50;;;6.00;99.90;;;;;;5073661;28;21005;-69
2022/04/18 06:33:34;;;;;;;0.50;0.50;;;6.10;99.90;;;;;;5073630;28;20423;-70
2022/04/18 06:36:22;;;;;;;0.60;0.60;;;6.20;99.90;;;;;;5073171;28;20546;-69
2022/04/18 06:39:10;;;;;;;0.87;0.87;;;6.40;99.90;;;;;;5073665;28;20798;-69
2022/04/18 06:42:00;;;;;;;0.60;0.60;;;6.40;99.90;;;;;;5073680;28;20876;-68
2022/04/18 06:44:49;;;;;;;0.50;0.50;;;6.50;99.90;;;;;;5075278;28;20423;-69
2022/04/18 06:47:37;;;;;;;0.40;0.40;;;6.60;99.90;;;;;;5074448;28;20431;-70
2022/04/18 06:50:25;;;;;;;0.50;0.50;;;6.70;99.90;;;;;;5074350;28;20427;-68
2022/04/18 06:53:13;;;;;;;0.40;0.40;;;6.90;99.90;;;;;;5074728;28;20547;-69
2022/04/18 06:59:07;;;;;;;0.50;0.50;;;7.00;99.90;;;;;;5075488;28;20419;-69
2022/04/18 07:01:58;;;;;;;1.63;1.27;;;7.00;99.90;;;;;;5075384;28;20423;-70
2022/04/18 07:04:46;;;;;;;0.40;0.40;;;7.10;99.90;;;;;;5075106;28;20415;-69
2022/04/18 07:07:36;;;;;;;1.10;1.00;;;7.10;99.90;;;;;;5075184;28;20434;-70
2022/04/18 07:10:24;;;;;;;0.50;0.50;;;7.10;99.90;;;;;;5074304;28;20427;-68
2022/04/18 07:13:12;;;;;;;0.40;0.40;;;7.20;99.90;;;;;;5075780;28;20423;-68
2022/04/18 07:16:01;;;;;;;0.50;0.50;;;7.30;99.90;;;;;;5075212;28;20450;-69
2022/04/18 07:18:50;;;;;;;0.50;0.50;;;7.40;99.90;;;;;;5075652;28;20422;-69
2022/04/18 07:21:39;;;;;;;0.50;0.50;;;7.50;99.90;;;;;;5075267;28;20431;-69
2022/04/18 07:24:27;;;;;;;0.50;0.50;;;7.60;99.90;;;;;;5075996;28;20504;-70
2022/04/18 07:27:15;;;;;;;0.50;0.50;;;7.70;99.90;;;;;;5074779;28;20447;-69
2022/04/18 07:30:04;;;;;;;0.50;0.50;;;7.80;99.90;;;;;;5075073;28;20471;-69
2022/04/18 07:32:52;;;;;;;0.50;0.50;;;7.90;99.90;;;;;;5074768;28;20863;-71
2022/04/18 07:35:41;;;;;;;0.50;0.50;;;8.00;99.90;;;;;;5075769;28;21075;-70
2022/04/18 07:41:35;;;;;;;0.50;0.50;;;8.20;99.90;;;;;;5077077;28;20431;-71
2022/04/18 07:44:23;;;;;;;0.40;0.40;;;8.30;99.90;;;;;;5077327;28;20466;-69
2022/04/18 07:47:11;;;;;;;0.50;0.50;;;8.40;99.90;;;;;;5077187;28;20447;-70
2022/04/18 07:50:00;;;;;;;0.50;0.50;;;8.50;99.90;;;;;;5077065;28;20516;-69
2022/04/18 07:52:49;;;;;;;0.50;0.50;;;8.50;99.90;;;;;;5075859;28;20438;-70
2022/04/18 07:55:37;;;;;;;0.40;0.40;;;8.70;99.90;;;;;;5075920;28;20439;-70
2022/04/18 07:58:25;;;;;;;0.40;0.40;;;8.80;99.90;;;;;;5077885;28;20412;-69
2022/04/18 08:01:13;;;;;;;0.50;0.50;;;8.80;99.90;;;;;;5077019;28;20427;-71
2022/04/18 08:04:03;;;;;;;0.50;0.50;;;8.80;99.90;;;;;;5076971;28;20423;-73
2022/04/18 08:06:51;;;;;;;0.50;0.50;;;8.90;99.90;;;;;;5077295;28;20496;-72
2022/04/18 08:09:40;;;;;;;0.50;0.50;;;9.00;99.90;;;;;;5076208;28;20462;-71
2022/04/18 08:12:28;;;;;;;0.40;0.40;;;9.20;99.90;;;;;;5076290;28;20427;-70
2022/04/18 08:15:16;;;;;;;0.40;0.40;;;9.30;99.90;;;;;;5076509;28;20481;-70
2022/04/18 08:18:05;;;;;;;0.50;0.50;;;9.40;99.90;;;;;;5076862;28;20434;-70
2022/04/18 08:20:53;;;;;;;0.50;0.50;;;9.50;99.90;;;;;;5078052;28;20427;-70
2022/04/18 08:23:42;;;;;;;0.60;0.60;;;9.60;99.90;;;;;;5076130;28;20912;-73
2022/04/18 08:26:31;;;;;;;0.50;0.50;;;9.60;99.90;;;;;;5076326;28;20974;-70
2022/04/18 08:29:21;;;;;;;0.47;0.47;;;9.70;99.90;;;;;;5076622;28;20467;-72
2022/04/18 08:32:10;;;;;;;0.40;0.40;;;9.80;99.90;;;;;;5077148;28;20427;-70
2022/04/18 08:34:58;;;;;;;0.40;0.40;;;9.80;99.90;;;;;;5076719;28;20465;-71
2022/04/18 08:37:48;;;;;;;0.40;0.40;;;9.90;99.90;;;;;;5076541;28;20428;-72
2022/04/18 08:40:37;;;;;;;1.53;1.37;;;10.00;99.90;;;;;;5076286;28;20931;-72
2022/04/18 08:43:27;;;;;;;0.40;0.40;;;10.10;99.90;;;;;;5075536;28;20426;-73
2022/04/18 08:46:17;;;;;;;2.00;1.37;;;10.20;99.90;;;;;;5076456;28;20446;-70
2022/04/18 08:52:45;;;;;;;0.40;0.40;;;10.30;99.90;;;;;;5014313;28;20472;-71
2022/04/18 08:55:34;;;;;;;0.50;0.50;;;10.50;99.90;;;;;;5015346;28;20456;-70
2022/04/18 08:58:22;;;;;;;0.50;0.50;;;10.60;99.90;;;;;;5075319;28;20439;-68
2022/04/18 09:01:12;;;;;;;0.40;0.40;;;10.80;99.90;;;;;;5076629;28;20419;-70
2022/04/18 09:04:00;;;;;;;0.40;0.40;;;10.80;99.90;;;;;;5078217;28;20427;-69
2022/04/18 09:06:49;;;;;;;0.40;0.40;;;10.90;99.90;;;;;;5078148;28;20853;-69
2022/04/18 09:09:38;;;;;;;0.60;0.60;;;10.90;99.90;;;;;;5078066;28;20466;-72
2022/04/18 09:12:29;;;;;;;0.80;0.77;;;10.90;99.90;;;;;;5076595;28;20434;-69
2022/04/18 09:15:30;;;;;;;0.50;0.50;;;11.00;99.90;;;;;;5076722;28;21005;-70
2022/04/18 09:18:22;;;;;;;0.40;0.40;;;11.00;99.90;;;;;;5076655;28;20431;-70
2022/04/18 09:21:10;;;;;;;0.40;0.40;;;11.10;99.90;;;;;;5077191;28;20857;-71
2022/04/18 09:23:58;;;;;;;0.97;0.97;;;11.20;99.90;;;;;;5076759;28;20436;-69
2022/04/18 09:26:46;;;;;;;0.60;0.60;;;11.30;99.90;;;;;;5076606;28;20439;-70
2022/04/18 09:29:38;;;;;;;0.40;0.40;;;11.30;99.90;;;;;;5076169;28;20463;-69
2022/04/18 09:32:27;;;;;;;0.40;0.40;;;11.40;99.90;;;;;;5076555;28;20427;-68
2022/04/18 09:35:16;;;;;;;0.50;0.50;;;11.50;99.90;;;;;;5076623;28;20480;-70
2022/04/18 09:38:08;;;;;;;0.40;0.40;;;11.60;99.90;;;;;;5076691;28;20427;-71
2022/04/18 09:40:56;;;;;;;0.50;0.50;;;11.70;99.90;;;;;;5076304;28;20430;-69
2022/04/18 09:43:46;;;;;;;0.50;0.50;;;11.70;99.90;;;;;;5076844;28;20432;-71
2022/04/18 09:46:36;;;;;;;0.40;0.40;;;11.80;99.90;;;;;;5076420;28;20455;-70
2022/04/18 09:49:36;;;;;;;0.40;0.40;;;11.80;99.90;;;;;;5075821;28;20467;-72
2022/04/18 09:52:26;;;;;;;0.50;0.50;;;11.90;99.90;;;;;;5075668;28;20427;-69
2022/04/18 09:55:15;;;;;;;0.47;0.47;;;11.90;99.90;;;;;;5076804;28;20423;-69
2022/04/18 09:58:04;;;;;;;0.43;0.43;;;11.90;99.40;;;;;;5075883;28;20423;-71
2022/04/18 10:01:13;;;;;;;0.40;0.40;;;12.00;99.60;;;;;;5075723;28;20445;-69
2022/04/18 10:04:02;;;;;;;0.60;0.60;;;12.10;99.90;;;;;;5075899;28;20434;-71
2022/04/18 10:06:53;;;;;;;0.40;0.40;;;12.10;99.30;;;;;;5076550;28;20447;-70
2022/04/18 10:09:43;;;;;;;0.40;0.40;;;12.30;99.30;;;;;;5075590;28;20819;-70
2022/04/18 10:12:31;;;;;;;0.40;0.40;;;12.30;97.90;;;;;;5075463;28;20419;-71
2022/04/18 10:15:24;;;;;;;0.40;0.40;;;12.30;98.90;;;;;;5075033;28;20473;-69
2022/04/18 10:18:12;;;;;;;0.40;0.40;;;12.50;98.70;;;;;;5075809;28;20419;-70
2022/04/18 10:21:16;;;;;;;0.40;0.40;;;12.40;97.20;;;;;;5074820;28;20836;-70
2022/04/18 10:24:23;;;;;;;0.40;0.40;;;12.50;97.60;;;;;;5075895;28;20419;-70
2022/04/18 10:27:59;;;;;;;0.40;0.40;;;12.60;97.10;;;;;;5075573;28;20455;-71
2022/04/18 10:30:55;;;;;;;0.40;0.40;;;12.60;97.10;;;;;;5077027;28;20462;-69
2022/04/18 10:33:44;;;;;;;0.40;0.40;;;12.60;95.80;;;;;;5075949;28;20419;-70
2022/04/18 10:36:33;;;;;;;0.50;0.50;;;12.60;95.70;;;;;;5076844;28;20466;-69
2022/04/18 10:39:22;;;;;;;0.40;0.40;;;12.60;95.70;;;;;;5076747;28;20423;-69
2022/04/18 10:42:29;;;;;;;0.40;0.40;;;12.70;95.70;;;;;;5076559;28;20419;-69
2022/04/18 10:45:20;;;;;;;0.40;0.40;;;12.80;94.90;;;;;;5077258;28;20415;-71
2022/04/18 10:48:11;;;;;;;0.50;0.50;;;12.80;95.00;;;;;;5076239;28;20465;-69
2022/04/18 10:50:59;;;;;;;0.40;0.40;;;12.90;95.30;;;;;;5075937;28;20504;-69
2022/04/18 10:53:47;;;;;;;0.40;0.40;;;12.90;94.50;;;;;;5076183;28;20423;-69
2022/04/18 10:56:54;;;;;;;0.47;0.47;;;12.90;94.40;;;;;;5075561;28;20522;-70
2022/04/18 10:59:45;;;;;;;0.50;0.50;;;13.00;94.40;;;;;;5075548;28;20946;-69
2022/04/18 11:02:42;;;;;;;0.40;0.40;;;13.10;94.60;;;;;;5075363;28;20431;-71
2022/04/18 11:05:36;;;;;;;0.40;0.40;;;13.20;93.30;;;;;;5075703;28;20444;-71
2022/04/18 11:08:25;;;;;;;0.40;0.40;;;13.30;93.50;;;;;;5074613;28;20423;-70
2022/04/18 11:11:17;;;;;;;0.40;0.40;;;13.40;93.40;;;;;;5076884;28;20459;-73
2022/04/18 11:14:15;;;;;;;0.40;0.40;;;13.40;93.40;;;;;;5077848;28;20427;-70
2022/04/18 11:17:05;;;;;;;0.40;0.40;;;13.50;92.90;;;;;;5077481;28;20449;-69
2022/04/18 11:19:53;;;;;;;0.40;0.40;;;13.60;92.50;;;;;;5078428;28;20435;-70
2022/04/18 11:22:42;;;;;;;0.40;0.40;;;13.60;92.50;;;;;;5078150;28;20438;-71
2022/04/18 11:25:50;;;;;;;0.40;0.40;;;13.70;91.70;;;;;;5077488;28;20443;-70
2022/04/18 11:28:41;;;;;;;0.40;0.40;;;13.80;92.10;;;;;;5077936;28;20810;-68
2022/04/18 11:31:30;;;;;;;0.50;0.50;;;13.90;91.60;;;;;;5077639;28;21006;-70
2022/04/18 11:34:19;;;;;;;0.40;0.40;;;14.00;91.10;;;;;;5077604;28;20468;-69
2022/04/18 11:37:10;;;;;;;0.40;0.40;;;14.00;90.90;;;;;;5077250;28;20466;-68
2022/04/18 11:40:01;;;;;;;0.40;0.40;;;14.10;90.20;;;;;;5075937;28;20427;-68
2022/04/18 11:42:49;;;;;;;0.40;0.40;;;14.10;89.30;;;;;;5076260;28;20426;-68
2022/04/18 11:45:38;;;;;;;0.50;0.50;;;14.10;89.90;;;;;;5076530;28;20518;-67
2022/04/18 11:48:26;;;;;;;0.50;0.50;;;14.20;89.40;;;;;;5076027;28;20921;-68
2022/04/18 11:51:34;;;;;;;0.40;0.40;;;14.20;88.90;;;;;;5076199;28;20528;-68
2022/04/18 11:54:22;;;;;;;0.70;0.70;;;14.30;88.80;;;;;;5075735;28;20802;-67
2022/04/18 11:57:16;;;;;;;0.40;0.40;;;14.40;89.10;;;;;;5075811;28;20466;-68
2022/04/18 12:00:07;;;;;;;0.50;0.50;;;14.40;89.30;;;;;;5076390;28;20979;-67
2022/04/18 12:09:10;;;;;;;0.40;0.40;;;14.60;87.60;;;;;;5076202;28;20431;-67
2022/04/18 12:11:59;;;;;;;0.40;0.40;;;14.70;87.20;;;;;;5075403;28;20546;-68
2022/04/18 12:14:48;;;;;;;0.40;0.40;;;14.90;89.50;;;;;;5076133;28;20435;-68
2022/04/18 12:17:36;;;;;;;0.60;0.60;;;15.00;88.20;;;;;;5076552;28;20435;-67
2022/04/18 12:20:29;;;;;;;0.40;0.40;;;15.20;86.20;;;;;;5075598;28;20423;-67
2022/04/18 12:23:19;;;;;;;0.40;0.40;;;15.30;83.30;;;;;;5075174;28;20450;-68
2022/04/18 12:26:11;;;;;;;0.40;0.40;;;15.10;82.10;;;;;;5075244;28;20458;-66
2022/04/18 12:29:01;;;;;;;0.40;0.40;;;15.20;83.70;;;;;;5075449;28;20231;-67
2022/04/18 12:31:58;;;;;;;0.70;0.70;;;15.20;84.10;;;;;;5074654;28;21060;-68
2022/04/18 12:34:46;;;;;;;1.47;1.37;;;15.30;83.40;;;;;;5075713;28;20807;-68
2022/04/18 12:37:34;;;;;;;0.40;0.40;;;15.30;83.40;;;;;;5074881;28;20443;-69
2022/04/18 12:40:22;;;;;;;0.40;0.40;;;15.20;81.80;;;;;;5075565;28;20434;-69
2022/04/18 12:43:12;;;;;;;0.40;0.40;;;15.30;81.90;;;;;;5074925;28;20700;-67
2022/04/18 12:46:04;;;;;;;0.50;0.50;;;15.50;82.60;;;;;;5075312;28;20447;-66
2022/04/18 12:48:53;;;;;;;1.80;1.70;;;16.10;81.20;;;;;;5072795;28;20427;-67
2022/04/18 12:51:43;;;;;;;0.40;0.40;;;17.00;79.50;;;;;;5072699;28;20220;-69
2022/04/18 12:54:31;;;;;;;0.82;0.75;;;17.90;76.70;;;;;;5073301;28;20205;-70
2022/04/18 12:57:20;;;;;;;0.40;0.40;;;19.00;76.60;;;;;;5074014;28;20233;-67
2022/04/18 13:00:14;;;;;;;0.50;0.50;;;20.20;72.60;;;;;;5074725;28;20201;-67
2022/04/18 13:03:05;;;;;;;0.40;0.40;;;21.20;67.60;;;;;;5074120;28;20192;-69
2022/04/18 13:05:54;;;;;;;0.40;0.40;;;21.80;65.00;;;;;;5074211;28;20216;-68
2022/04/18 13:08:42;;;;;;;0.40;0.40;;;23.20;60.80;;;;;;5073200;28;20192;-67
2022/04/18 13:11:38;;;;;;;1.00;1.00;;;25.00;59.00;;;;;;5072050;28;20693;-67
2022/04/18 13:14:26;;;;;;;0.40;0.40;;;26.40;52.40;;;;;;5071589;28;20196;-67
2022/04/18 13:17:14;;;;;;;0.40;0.40;;;26.40;50.80;;;;;;5072213;28;20223;-67
2022/04/18 13:20:07;;;;;;;0.40;0.40;;;27.20;49.10;;;;;;5071959;28;20274;-67
2022/04/18 13:22:56;;;;;;;0.40;0.40;;;27.80;47.00;;;;;;5071958;28;20254;-68
2022/04/18 13:25:46;;;;;;;0.40;0.40;;;28.60;44.10;;;;;;5072101;28;20217;-67
2022/04/18 13:28:37;;;;;;;0.40;0.40;;;29.10;43.40;;;;;;5054937;28;20215;-67
2022/04/18 13:31:27;;;;;;;0.40;0.40;;;29.80;42.00;;;;;;5071794;28;20603;-67
2022/04/18 13:34:15;;;;;;;0.40;0.40;;;29.70;41.90;;;;;;5071824;28;20576;-67
2022/04/18 13:37:04;;;;;;;0.40;0.40;;;31.00;41.00;;;;;;5072306;28;20293;-68
2022/04/18 13:39:53;;;;;;;0.40;0.40;;;32.70;39.60;;;;;;5071199;28;20207;-68
2022/04/18 13:42:42;;;;;;;0.40;0.40;;;33.80;36.60;;;;;;5071486;28;20272;-68
2022/04/18 13:45:30;;;;;;;0.40;0.40;;;34.20;37.00;;;;;;5071888;28;20223;-68
2022/04/18 13:48:21;;;;;;;0.40;0.40;;;34.10;35.20;;;;;;5071753;28;20673;-68
2022/04/18 13:51:09;;;;;;;0.40;0.40;;;32.20;35.90;;;;;;5071666;28;20212;-68
2022/04/18 13:53:57;;;;;;;0.40;0.40;;;31.80;37.00;;;;;;5072427;28;20207;-67
2022/04/18 13:56:47;;;;;;;0.40;0.40;;;32.50;36.70;;;;;;5071548;28;20244;-67
2022/04/18 13:59:35;;;;;;;0.40;0.40;;;32.70;36.10;;;;;;5071329;28;20679;-67
2022/04/18 14:02:30;;;;;;;0.40;0.40;;;32.70;36.30;;;;;;5070472;28;20661;-67
2022/04/18 14:05:18;;;;;;;0.50;0.50;;;32.70;35.50;;;;;;5071326;28;20685;-68
2022/04/18 14:08:07;;;;;;;0.40;0.40;;;32.90;34.70;;;;;;5070798;28;20208;-68
2022/04/18 14:10:55;;;;;;;0.40;0.40;;;32.40;34.90;;;;;;5071567;28;20257;-68
2022/04/18 14:13:45;;;;;;;0.40;0.40;;;32.10;35.00;;;;;;5071141;28;20258;-67
2022/04/18 14:22:45;;;;;;;0.40;0.40;;;27.70;38.70;;;;;;5070163;28;20203;-68
2022/04/18 14:25:34;;;;;;;0.75;0.75;;;27.00;39.00;;;;;;5071617;28;20720;-67
2022/04/18 14:28:22;;;;;;;0.40;0.40;;;27.40;38.50;;;;;;5071136;28;20201;-67
2022/04/18 14:31:12;;;;;;;0.40;0.40;;;27.50;39.00;;;;;;5070803;28;20205;-67
2022/04/18 14:34:00;;;;;;;0.55;0.55;;;27.30;39.70;;;;;;5071558;28;20211;-69
2022/04/18 14:36:48;;;;;;;0.40;0.40;;;26.70;39.10;;;;;;5071865;28;20231;-68
2022/04/18 14:39:36;;;;;;;0.40;0.40;;;25.70;40.90;;;;;;5071968;28;20196;-69
2022/04/18 14:42:25;;;;;;;0.60;0.52;;;25.10;41.00;;;;;;5071863;28;20196;-67
2022/04/18 14:45:13;;;;;;;0.40;0.40;;;25.30;41.10;;;;;;5075074;28;20197;-68
2022/04/18 14:48:02;;;;;;;0.40;0.40;;;25.10;41.30;;;;;;5076723;28;20250;-69
2022/04/18 14:50:51;;;;;;;0.40;0.40;;;25.30;41.90;;;;;;5076639;28;20204;-69
2022/04/18 14:53:39;;;;;;;0.40;0.40;;;25.80;41.40;;;;;;5074817;28;20754;-67
2022/04/18 14:56:27;;;;;;;0.40;0.40;;;27.40;40.70;;;;;;5074972;28;20246;-67
2022/04/18 14:59:15;;;;;;;0.40;0.40;;;29.10;38.90;;;;;;5075261;28;20200;-67
2022/04/18 15:02:03;;;;;;;0.40;0.40;;;30.10;38.20;;;;;;5074617;28;20246;-66
2022/04/18 15:04:53;;;;;;;0.40;0.40;;;30.50;36.70;;;;;;5074764;28;20704;-66
2022/04/18 15:07:42;;;;;;;0.50;0.50;;;30.20;36.30;;;;;;5075291;28;20212;-67
2022/04/18 15:10:30;;;;;;;0.40;0.40;;;30.50;36.70;;;;;;5074484;28;20208;-67
2022/04/18 15:13:18;;;;;;;0.93;0.93;;;30.50;36.40;;;;;;5074538;28;20228;-67
2022/04/18 15:16:12;;;;;;;0.40;0.40;;;31.40;36.10;;;;;;5074346;28;20219;-67
2022/04/18 15:19:00;;;;;;;0.40;0.40;;;31.20;35.30;;;;;;5074359;28;20293;-67
2022/04/18 15:21:50;;;;;;;0.40;0.40;;;30.40;36.00;;;;;;5074131;28;20204;-67
2022/04/18 15:24:40;;;;;;;0.40;0.40;;;29.80;36.80;;;;;;5074356;28;20205;-67